Time;durP1;ratioP1;P1;durP2;ratioP2;P2;SDS_P1;SDS_P2;PMS_P1;PMS_P2;Temp;Humidity;BMP_temperature;BMP_pressure;BME280_temperature;BME280_humidity;BME280_pressure;Samples;Min_cycle;Max_cycle;Signal;HPM_P1;HPM_P2
2022/09/28 00:01:16;;;;;;;3.90;2.03;;;;;;;-145.49;100.00;62790.56;4990907;28;20030;-74
2022/09/28 00:03:43;;;;;;;3.60;2.05;;;;;;;-145.49;100.00;62790.56;4982744;28;20041;-74
2022/09/28 00:06:11;;;;;;;3.25;1.98;;;;;;;-145.49;100.00;62790.56;5007918;28;20034;-73
2022/09/28 00:08:43;;;;;;;2.65;1.23;;;;;;;-145.49;100.00;62790.56;4988630;28;20042;-74
2022/09/28 00:11:12;;;;;;;2.90;1.00;;;;;;;-145.49;100.00;62790.56;4991721;28;20053;-73
2022/09/28 00:13:39;;;;;;;2.20;1.20;;;;;;;-145.49;100.00;62790.56;5003544;28;20369;-74
2022/09/28 00:16:09;;;;;;;2.47;1.55;;;;;;;-145.49;100.00;62790.56;4992940;28;20031;-74
2022/09/28 00:18:37;;;;;;;2.60;1.58;;;;;;;-145.49;100.00;62790.56;4988271;28;20045;-72
2022/09/28 00:21:11;;;;;;;2.38;1.67;;;;;;;-145.49;100.00;62790.56;4972643;28;20038;-73
2022/09/28 00:24:11;;;;;;;2.40;1.30;;;;;;;-145.49;100.00;62790.56;4988289;28;20038;-73
2022/09/28 00:26:29;;;;;;;5.88;1.52;;;;;;;-145.49;100.00;62790.56;4986882;28;20389;-72
2022/09/28 00:28:58;;;;;;;3.35;1.77;;;;;;;-145.49;100.00;62790.56;4978863;28;20038;-73
2022/09/28 00:31:30;;;;;;;3.60;1.85;;;;;;;-145.49;100.00;62790.56;4987737;28;20030;-73
2022/09/28 00:34:00;;;;;;;1.30;0.90;;;;;;;-145.49;100.00;62790.56;5003412;28;20035;-73
2022/09/28 00:36:31;;;;;;;1.67;1.20;;;;;;;-145.49;100.00;62790.56;4988334;28;20026;-73
2022/09/28 00:39:02;;;;;;;2.67;1.23;;;;;;;-145.49;100.00;62790.56;4999338;28;20042;-73
2022/09/28 00:41:30;;;;;;;2.75;0.95;;;;;;;-145.49;100.00;62790.56;4990508;28;20045;-75
2022/09/28 00:44:27;;;;;;;5.63;0.95;;;;;;;-145.49;100.00;62790.56;4971257;28;20484;-73
2022/09/28 00:46:59;;;;;;;2.20;0.60;;;;;;;-145.49;100.00;62790.56;5006655;28;20042;-73
2022/09/28 00:49:54;;;;;;;1.98;0.70;;;;;;;-145.49;100.00;62790.56;4989578;28;20046;-73
2022/09/28 00:52:27;;;;;;;3.10;0.95;;;;;;;-145.49;100.00;62790.56;4977562;28;20050;-73
2022/09/28 00:54:58;;;;;;;1.77;0.90;;;;;;;-145.49;100.00;62790.56;4973176;28;20034;-73
2022/09/28 00:57:25;;;;;;;5.38;1.38;;;;;;;-145.49;100.00;62790.56;5005528;28;20038;-73
2022/09/28 00:59:54;;;;;;;2.38;0.82;;;;;;;-145.49;100.00;62790.56;5004429;28;20054;-73
2022/09/28 01:02:20;;;;;;;2.50;0.95;;;;;;;-145.49;100.00;62790.56;4992102;28;20469;-73
2022/09/28 01:04:48;;;;;;;2.28;1.33;;;;;;;-145.49;100.00;62790.56;4987051;28;20026;-73
2022/09/28 01:07:17;;;;;;;1.00;0.90;;;;;;;-145.49;100.00;62790.56;4989402;28;20039;-73
2022/09/28 01:09:49;;;;;;;4.43;1.13;;;;;;;-145.49;100.00;62790.56;4999883;28;20049;-72
2022/09/28 01:12:15;;;;;;;0.80;0.77;;;;;;;-145.49;100.00;62790.56;4974659;28;20037;-73
2022/09/28 01:14:45;;;;;;;2.53;0.95;;;;;;;-145.49;100.00;62790.56;5001231;28;20412;-73
2022/09/28 01:17:18;;;;;;;0.93;0.73;;;;;;;-145.49;100.00;62790.56;4987079;28;20034;-73
2022/09/28 01:20:06;;;;;;;1.73;1.38;;;;;;;-145.49;100.00;62790.56;5001613;28;20034;-72
2022/09/28 01:22:33;;;;;;;1.70;1.23;;;;;;;-145.49;100.00;62790.56;5002036;28;20042;-73
2022/09/28 01:25:19;;;;;;;1.55;1.10;;;;;;;-145.49;100.00;62790.56;4991194;28;20037;-73
2022/09/28 01:27:51;;;;;;;2.45;0.90;;;;;;;-145.49;100.00;62790.56;4986377;28;20519;-72
2022/09/28 01:30:24;;;;;;;2.78;1.42;;;;;;;-145.49;100.00;62790.56;4986275;28;20049;-73
2022/09/28 01:33:09;;;;;;;3.08;2.15;;;;;;;-145.49;100.00;62790.56;4969285;28;20051;-74
2022/09/28 01:35:42;;;;;;;2.97;1.63;;;;;;;-145.49;100.00;62790.56;4985042;28;20058;-73
2022/09/28 01:38:22;;;;;;;2.03;0.80;;;;;;;-145.49;100.00;62790.56;4987212;28;20037;-73
2022/09/28 01:40:50;;;;;;;1.55;1.10;;;;;;;-145.49;100.00;62790.56;4982314;28;20038;-73
2022/09/28 01:43:23;;;;;;;1.60;1.10;;;;;;;-145.49;100.00;62790.56;5006686;28;20038;-73
2022/09/28 01:45:54;;;;;;;3.50;1.02;;;;;;;-145.49;100.00;62790.56;4991084;28;20038;-73
2022/09/28 01:48:45;;;;;;;2.28;1.15;;;;;;;-145.49;100.00;62790.56;4984310;28;20038;-73
2022/09/28 01:51:29;;;;;;;1.42;0.88;;;;;;;-145.49;100.00;62790.56;4981852;28;20043;-75
2022/09/28 01:54:01;;;;;;;3.00;1.00;;;;;;;-145.49;100.00;62790.56;4989987;28;20413;-74
2022/09/28 01:56:38;;;;;;;3.00;0.95;;;;;;;-145.49;100.00;62790.56;4992246;28;20038;-74
2022/09/28 01:59:17;;;;;;;1.55;0.70;;;;;;;-145.49;100.00;62790.56;4985782;28;20030;-74
2022/09/28 02:01:53;;;;;;;2.78;1.33;;;;;;;-145.49;100.00;62790.56;4998432;28;20050;-74
2022/09/28 02:04:28;;;;;;;1.73;1.15;;;;;;;-145.49;100.00;62790.56;4983231;28;20034;-75
2022/09/28 02:06:57;;;;;;;6.43;2.03;;;;;;;-145.49;100.00;62790.56;4975005;28;20054;-74
2022/09/28 02:09:56;;;;;;;2.38;0.85;;;;;;;-145.49;100.00;62790.56;4994159;28;20041;-74
2022/09/28 02:12:36;;;;;;;1.42;1.33;;;;;;;-145.49;100.00;62790.56;4981133;28;20053;-74
2022/09/28 02:15:09;;;;;;;1.77;1.10;;;;;;;-145.49;100.00;62790.56;4976525;28;20047;-75
2022/09/28 02:17:40;;;;;;;4.35;1.40;;;;;;;-145.49;100.00;62790.56;4978428;28;20042;-74
2022/09/28 02:20:07;;;;;;;1.83;1.48;;;;;;;-145.49;100.00;62790.56;4985828;28;20031;-74
2022/09/28 02:22:53;;;;;;;3.08;1.67;;;;;;;-145.49;100.00;62790.56;4959736;28;20054;-74
2022/09/28 02:25:33;;;;;;;2.40;1.23;;;;;;;-145.49;100.00;62790.56;4986707;28;20030;-74
2022/09/28 02:28:03;;;;;;;5.05;1.10;;;;;;;-145.49;100.00;62790.56;4990082;28;20049;-74
2022/09/28 02:30:31;;;;;;;2.72;1.25;;;;;;;-145.49;100.00;62790.56;4986939;28;20407;-74
2022/09/28 02:33:08;;;;;;;3.13;1.30;;;;;;;-145.49;100.00;62790.56;4998994;28;20376;-74
2022/09/28 02:35:39;;;;;;;2.33;1.63;;;;;;;-145.49;100.00;62790.56;4984062;28;20046;-74
2022/09/28 02:38:09;;;;;;;3.25;1.27;;;;;;;-145.49;100.00;62790.56;4987658;28;20042;-74
2022/09/28 02:40:45;;;;;;;4.43;1.30;;;;;;;-145.49;100.00;62790.56;4971094;28;20045;-73
2022/09/28 02:43:33;;;;;;;2.95;0.93;;;;;;;-145.49;100.00;62790.56;4986161;28;20049;-73
2022/09/28 02:46:14;;;;;;;1.83;1.42;;;;;;;-145.49;100.00;62790.56;4979727;28;20026;-73
2022/09/28 02:48:56;;;;;;;1.55;1.00;;;;;;;-145.49;100.00;62790.56;4981761;28;20525;-73
2022/09/28 02:51:34;;;;;;;0.90;0.65;;;;;;;-145.49;100.00;62790.56;4989529;28;20033;-73
2022/09/28 02:54:25;;;;;;;4.82;1.80;;;;;;;-145.49;100.00;62790.56;4992855;28;20047;-73
2022/09/28 02:57:04;;;;;;;2.05;0.93;;;;;;;-145.49;100.00;62790.56;5003039;28;20034;-73
2022/09/28 02:59:51;;;;;;;1.73;1.13;;;;;;;-145.49;100.00;62790.56;4982813;28;20034;-73
2022/09/28 03:02:22;;;;;;;3.50;3.15;;;;;;;-145.49;100.00;62790.56;4996512;28;20036;-73
2022/09/28 03:05:11;;;;;;;2.00;1.27;;;;;;;-145.49;100.00;62790.56;4993390;28;20035;-73
2022/09/28 03:08:02;;;;;;;1.42;1.15;;;;;;;-145.49;100.00;62790.56;4988500;28;20196;-73
2022/09/28 03:10:40;;;;;;;1.80;1.23;;;;;;;-145.49;100.00;62790.56;4987291;28;20511;-73
2022/09/28 03:13:07;;;;;;;1.88;1.00;;;;;;;-145.49;100.00;62790.56;4984051;28;20047;-74
2022/09/28 03:15:37;;;;;;;1.50;1.05;;;;;;;-145.49;100.00;62790.56;5000682;28;20507;-73
2022/09/28 03:18:09;;;;;;;1.13;0.73;;;;;;;-145.49;100.00;62790.56;4982855;28;20037;-73
2022/09/28 03:20:36;;;;;;;0.90;0.70;;;;;;;-145.49;100.00;62790.56;4996994;28;20392;-73
2022/09/28 03:23:02;;;;;;;2.35;1.23;;;;;;;-145.49;100.00;62790.56;4983373;28;20045;-73
2022/09/28 03:25:31;;;;;;;2.15;1.25;;;;;;;-145.49;100.00;62790.56;4969212;28;20053;-73
2022/09/28 03:27:57;;;;;;;2.45;0.95;;;;;;;-145.49;100.00;62790.56;4985259;28;20045;-73
2022/09/28 03:30:24;;;;;;;1.40;0.88;;;;;;;-145.49;100.00;62790.56;4998322;28;20038;-74
2022/09/28 03:33:01;;;;;;;1.38;0.93;;;;;;;-145.49;100.00;62790.56;4981956;28;20480;-73
2022/09/28 03:35:30;;;;;;;1.80;1.17;;;;;;;-145.49;100.00;62790.56;5001032;28;20508;-73
2022/09/28 03:37:58;;;;;;;1.30;1.17;;;;;;;-145.49;100.00;62790.56;4989823;28;20034;-73
2022/09/28 03:40:28;;;;;;;2.40;1.27;;;;;;;-145.49;100.00;62790.56;5003940;28;20393;-73
2022/09/28 03:42:54;;;;;;;1.33;1.10;;;;;;;-145.49;100.00;62790.56;4988036;28;20072;-73
2022/09/28 03:45:21;;;;;;;1.45;0.98;;;;;;;-145.49;100.00;62790.56;4985679;28;20665;-73
2022/09/28 03:47:49;;;;;;;1.95;1.00;;;;;;;-145.49;100.00;62790.56;4996168;28;20038;-73
2022/09/28 03:50:20;;;;;;;1.40;1.00;;;;;;;-145.49;100.00;62790.56;4997684;28;20412;-73
2022/09/28 03:52:52;;;;;;;3.60;1.90;;;;;;;-145.49;100.00;62790.56;4988303;28;20083;-73
2022/09/28 03:55:18;;;;;;;2.00;1.20;;;;;;;-145.49;100.00;62790.56;4969605;28;20039;-73
2022/09/28 03:57:53;;;;;;;1.08;0.80;;;;;;;-145.49;100.00;62790.56;4992869;28;20034;-73
2022/09/28 04:00:24;;;;;;;1.65;1.55;;;;;;;-145.49;100.00;62790.56;4987701;28;20663;-73
2022/09/28 04:02:55;;;;;;;1.10;1.00;;;;;;;-145.49;100.00;62790.56;4990071;28;20043;-73
2022/09/28 04:05:22;;;;;;;1.52;1.42;;;;;;;-145.49;100.00;62790.56;4996083;28;20636;-73
2022/09/28 04:07:58;;;;;;;1.65;1.35;;;;;;;-145.49;100.00;62790.56;4990170;28;20931;-73
2022/09/28 04:10:27;;;;;;;1.80;1.20;;;;;;;-145.49;100.00;62790.56;4991753;28;20038;-72
2022/09/28 04:12:57;;;;;;;1.58;0.90;;;;;;;-145.49;100.00;62790.56;4993106;28;20045;-72
2022/09/28 04:15:26;;;;;;;1.33;1.00;;;;;;;-145.49;100.00;62790.56;5003508;28;20043;-72
2022/09/28 04:17:52;;;;;;;5.95;1.13;;;;;;;-145.49;100.00;62790.56;4999083;28;20504;-72
2022/09/28 04:20:44;;;;;;;1.67;1.52;;;;;;;-145.49;100.00;62790.56;4990166;28;20053;-72
2022/09/28 04:23:14;;;;;;;1.85;1.75;;;;;;;-145.49;100.00;62790.56;4972757;28;20393;-72
2022/09/28 04:25:44;;;;;;;2.20;1.63;;;;;;;-145.49;100.00;62790.56;4998705;28;20755;-72
2022/09/28 04:30:58;;;;;;;2.17;1.92;;;;;;;-145.49;100.00;62790.56;4990268;28;20042;-73
2022/09/28 04:33:24;;;;;;;2.75;1.77;;;;;;;-145.49;100.00;62790.56;4997929;28;20026;-73
2022/09/28 04:35:50;;;;;;;2.30;1.63;;;;;;;-145.49;100.00;62790.56;5008373;28;20030;-72
2022/09/28 04:38:17;;;;;;;4.53;2.08;;;;;;;-145.49;100.00;62790.56;4988222;28;20038;-73
2022/09/28 04:40:43;;;;;;;4.57;2.30;;;;;;;-145.49;100.00;62790.56;4993142;28;20588;-73
2022/09/28 04:43:09;;;;;;;1.70;1.20;;;;;;;-145.49;100.00;62790.56;4985438;28;20046;-72
2022/09/28 04:45:35;;;;;;;3.28;2.72;;;;;;;-145.49;100.00;62790.56;4990395;28;20452;-72
2022/09/28 04:48:07;;;;;;;2.88;1.95;;;;;;;-145.49;100.00;62790.56;4993152;28;20057;-72
2022/09/28 04:50:59;;;;;;;2.45;1.70;;;;;;;-145.49;100.00;62790.56;4999331;28;20034;-73
2022/09/28 04:53:26;;;;;;;4.63;2.05;;;;;;;-145.49;100.00;62790.56;4997239;28;20035;-73
2022/09/28 04:55:56;;;;;;;3.83;3.03;;;;;;;-145.49;100.00;62790.56;4966016;28;20046;-73
2022/09/28 04:58:22;;;;;;;2.67;2.47;;;;;;;-145.49;100.00;62790.56;4999909;28;20042;-74
2022/09/28 05:00:52;;;;;;;4.07;3.08;;;;;;;-145.49;100.00;62790.56;4980995;28;20053;-74
2022/09/28 05:03:41;;;;;;;4.18;2.40;;;;;;;-145.49;100.00;62790.56;4988399;28;20507;-73
2022/09/28 05:06:21;;;;;;;4.63;3.15;;;;;;;-145.49;100.00;62790.56;4989798;28;20039;-74
2022/09/28 05:08:56;;;;;;;3.00;2.10;;;;;;;-145.49;100.00;62790.56;4987207;28;20046;-74
2022/09/28 05:11:25;;;;;;;3.53;2.58;;;;;;;-145.49;100.00;62790.56;4986618;28;20072;-73
2022/09/28 05:13:54;;;;;;;5.70;2.25;;;;;;;-145.49;100.00;62790.56;4991033;28;20042;-74
2022/09/28 05:16:24;;;;;;;2.40;1.80;;;;;;;-145.49;100.00;62790.56;4989079;28;20042;-73
2022/09/28 05:19:13;;;;;;;2.90;2.17;;;;;;;-145.49;100.00;62790.56;5012524;23;20038;-83
2022/09/28 05:21:48;;;;;;;3.95;2.17;;;;;;;-145.49;100.00;62790.56;4988858;28;20404;-84
2022/09/28 05:24:14;;;;;;;6.10;2.67;;;;;;;-145.49;100.00;62790.56;4975101;28;20038;-84
2022/09/28 05:26:46;;;;;;;3.67;2.13;;;;;;;-145.49;100.00;62790.56;5002649;28;20038;-84
2022/09/28 05:29:13;;;;;;;5.15;2.88;;;;;;;-145.49;100.00;62790.56;4988893;28;20057;-84
2022/09/28 05:31:39;;;;;;;3.28;2.35;;;;;;;-145.49;100.00;62790.56;4990144;28;20045;-84
2022/09/28 05:34:22;;;;;;;7.82;4.20;;;;;;;-145.49;100.00;62790.56;4974328;28;20038;-83
2022/09/28 05:36:50;;;;;;;4.53;2.83;;;;;;;-145.49;100.00;62790.56;4989690;28;20436;-84
2022/09/28 05:39:19;;;;;;;2.90;2.67;;;;;;;-145.49;100.00;62790.56;4988305;28;20045;-83
2022/09/28 05:41:48;;;;;;;2.63;2.25;;;;;;;-145.49;100.00;62790.56;4991411;28;20039;-84
2022/09/28 05:44:19;;;;;;;5.55;2.33;;;;;;;-145.49;100.00;62790.56;4988979;28;20049;-84
2022/09/28 05:46:52;;;;;;;3.53;2.30;;;;;;;-145.49;100.00;62790.56;4972067;28;20039;-84
2022/09/28 05:49:23;;;;;;;4.00;2.78;;;;;;;-145.49;100.00;62790.56;4983599;28;20038;-83
2022/09/28 05:51:49;;;;;;;4.35;2.35;;;;;;;-145.49;100.00;62790.56;4971058;28;20042;-84
2022/09/28 05:54:15;;;;;;;3.65;2.70;;;;;;;-145.49;100.00;62790.56;5006202;28;20038;-84
2022/09/28 05:56:47;;;;;;;4.15;2.33;;;;;;;-145.49;100.00;62790.56;4988136;28;20373;-83
2022/09/28 05:59:19;;;;;;;3.03;2.72;;;;;;;-145.49;100.00;62790.56;4989197;28;20038;-83
2022/09/28 06:01:47;;;;;;;6.05;3.65;;;;;;;-145.49;100.00;62790.56;4970433;28;20507;-83
2022/09/28 06:04:16;;;;;;;3.95;2.95;;;;;;;-145.49;100.00;62790.56;4968246;28;20243;-82
2022/09/28 06:06:49;;;;;;;12.90;4.50;;;;;;;-145.49;100.00;62790.56;4980932;28;20377;-83
2022/09/28 06:09:22;;;;;;;3.72;2.33;;;;;;;-145.49;100.00;62790.56;5004208;28;20034;-85
2022/09/28 06:12:02;;;;;;;3.33;2.38;;;;;;;-145.49;100.00;62790.56;4990152;28;20045;-84
2022/09/28 06:14:39;;;;;;;7.05;3.97;;;;;;;-145.49;100.00;62790.56;4988173;28;20038;-84
2022/09/28 06:17:07;;;;;;;4.55;2.90;;;;;;;-145.49;100.00;62790.56;4986642;28;20038;-84
2022/09/28 06:19:36;;;;;;;2.97;2.53;;;;;;;-145.49;100.00;62790.56;4984758;28;20039;-84
2022/09/28 06:22:18;;;;;;;6.50;4.57;;;;;;;-145.49;100.00;62790.56;4990162;28;20034;-83
2022/09/28 06:24:51;;;;;;;6.78;3.72;;;;;;;-145.49;100.00;62790.56;4975918;28;20057;-83
2022/09/28 06:27:22;;;;;;;12.27;10.00;;;;;;;-145.49;100.00;62790.56;4982139;28;20033;-84
2022/09/28 06:29:51;;;;;;;8.57;7.30;;;;;;;-145.49;100.00;62790.56;4988319;28;20045;-84
2022/09/28 06:32:22;;;;;;;8.80;7.25;;;;;;;-145.49;100.00;62790.56;4984104;28;20039;-84
2022/09/28 06:34:49;;;;;;;10.38;6.43;;;;;;;-145.49;100.00;62790.56;4989546;28;20049;-84
2022/09/28 06:37:21;;;;;;;6.57;5.63;;;;;;;-145.49;100.00;62790.56;4987789;28;20038;-84
2022/09/28 06:39:52;;;;;;;5.15;3.58;;;;;;;-145.49;100.00;62790.56;4988204;28;20049;-84
2022/09/28 06:42:22;;;;;;;14.45;10.13;;;;;;;-145.49;100.00;62790.56;4970578;28;20034;-84
2022/09/28 06:45:09;;;;;;;4.47;3.30;;;;;;;-145.49;100.00;62790.56;4988511;28;20030;-84
2022/09/28 06:48:07;;;;;;;8.93;5.87;;;;;;;-145.49;100.00;62790.56;4999436;28;20488;-83
2022/09/28 06:50:44;;;;;;;7.78;5.88;;;;;;;-145.49;100.00;62790.56;4982695;28;20293;-83
2022/09/28 06:53:23;;;;;;;5.47;4.85;;;;;;;-145.49;100.00;62790.56;4991354;28;20031;-83
2022/09/28 06:55:56;;;;;;;8.80;6.43;;;;;;;-145.49;100.00;62790.56;4991512;28;20043;-83
2022/09/28 06:58:22;;;;;;;11.88;8.50;;;;;;;-145.49;100.00;62790.56;4968213;28;20035;-84
2022/09/28 07:00:57;;;;;;;6.63;5.72;;;;;;;-145.49;100.00;62790.56;5003824;28;20038;-83
2022/09/28 07:03:33;;;;;;;6.05;3.60;;;;;;;-145.49;100.00;62790.56;4990278;28;20057;-84
2022/09/28 07:06:23;;;;;;;6.78;4.22;;;;;;;-145.49;100.00;62790.56;4988552;28;20051;-84
2022/09/28 07:09:07;;;;;;;8.85;5.53;;;;;;;-145.49;100.00;62790.56;4990997;28;20045;-84
2022/09/28 07:11:46;;;;;;;5.88;3.88;;;;;;;-145.49;100.00;62790.56;4969847;28;20046;-83
2022/09/28 07:14:44;;;;;;;7.85;5.35;;;;;;;-145.49;100.00;62790.56;4988283;28;20596;-84
2022/09/28 07:17:12;;;;;;;3.55;3.00;;;;;;;-145.49;100.00;62790.56;5002034;28;20404;-82
2022/09/28 07:19:41;;;;;;;6.07;3.85;;;;;;;-145.49;100.00;62790.56;5001082;28;20554;-84
2022/09/28 07:22:13;;;;;;;9.48;4.35;;;;;;;-145.49;100.00;62790.56;4987323;28;20041;-83
2022/09/28 07:24:43;;;;;;;13.90;10.55;;;;;;;-145.49;100.00;62790.56;4982124;28;20491;-83
2022/09/28 07:27:32;;;;;;;5.65;4.90;;;;;;;-145.49;100.00;62790.56;4982001;28;20133;-84
2022/09/28 07:30:15;;;;;;;7.20;6.28;;;;;;;-145.49;100.00;62790.56;4985692;28;20034;-84
2022/09/28 07:33:18;;;;;;;9.95;8.30;;;;;;;-145.49;100.00;62790.56;4933131;29;20167;-84
2022/09/28 07:35:54;;;;;;;16.25;9.48;;;;;;;-145.49;100.00;62790.56;4971484;28;20055;-84
2022/09/28 07:38:25;;;;;;;7.40;5.18;;;;;;;-145.49;100.00;62790.56;4988585;28;20054;-83
2022/09/28 07:41:21;;;;;;;7.32;4.93;;;;;;;-145.49;100.00;62790.56;4975842;28;20046;-83
2022/09/28 07:43:54;;;;;;;9.75;3.92;;;;;;;-145.49;100.00;62790.56;5004306;28;20503;-84
2022/09/28 07:46:25;;;;;;;8.27;3.47;;;;;;;-145.49;100.00;62790.56;4974731;28;20031;-84
2022/09/28 07:49:07;;;;;;;7.38;4.03;;;;;;;-145.49;100.00;62790.56;4989987;28;20045;-84
2022/09/28 07:51:50;;;;;;;4.25;3.85;;;;;;;-145.49;100.00;62790.56;4977652;28;20041;-83
2022/09/28 07:54:50;;;;;;;4.35;3.50;;;;;;;-145.49;100.00;62790.56;4975236;28;20057;-84
2022/09/28 07:57:46;;;;;;;5.97;5.25;;;;;;;-145.49;100.00;62790.56;4973462;28;20039;-83
2022/09/28 08:00:51;;;;;;;8.73;5.35;;;;;;;-145.49;100.00;62790.56;4980968;28;20489;-83
2022/09/28 08:03:23;;;;;;;11.07;4.88;;;;;;;-145.49;100.00;62790.56;5007077;28;20030;-84
2022/09/28 08:05:49;;;;;;;9.77;5.55;;;;;;;-145.49;100.00;62790.56;4991962;28;20030;-84
2022/09/28 08:08:19;;;;;;;4.30;3.42;;;;;;;-145.49;100.00;62790.56;4988139;28;20034;-83
2022/09/28 08:10:51;;;;;;;4.03;3.63;;;;;;;-145.49;100.00;62790.56;4988500;28;20046;-83
2022/09/28 08:13:42;;;;;;;5.65;4.88;;;;;;;-145.49;100.00;62790.56;4990676;28;20053;-84
2022/09/28 08:16:35;;;;;;;6.18;3.80;;;;;;;-145.49;100.00;62790.56;4987673;28;20051;-84
2022/09/28 08:19:19;;;;;;;4.57;3.00;;;;;;;-145.49;100.00;62790.56;4990032;28;20038;-84
2022/09/28 08:21:51;;;;;;;3.65;2.97;;;;;;;-145.49;100.00;62790.56;4969778;28;20061;-84
2022/09/28 08:24:22;;;;;;;8.70;4.07;;;;;;;-145.49;100.00;62790.56;4990235;28;20041;-83
2022/09/28 08:26:52;;;;;;;6.18;4.90;;;;;;;-145.49;100.00;62790.56;5005921;28;20038;-84
2022/09/28 08:29:22;;;;;;;4.07;2.50;;;;;;;-145.49;100.00;62790.56;4985995;28;20047;-84
2022/09/28 08:31:53;;;;;;;4.75;3.20;;;;;;;-145.49;100.00;62790.56;4990618;28;20045;-84
2022/09/28 08:34:41;;;;;;;3.50;2.00;;;;;;;-145.49;100.00;62790.56;4984664;28;20034;-84
2022/09/28 08:37:37;;;;;;;9.05;3.47;;;;;;;-145.49;100.00;62790.56;4991440;28;20805;-84
2022/09/28 08:40:56;;;;;;;;;;;;;;;-145.49;100.00;62790.56;4986862;28;20042;-84
2022/09/28 08:44:22;;;;;;;3.95;2.10;;;;;;;-145.49;100.00;62790.56;4989966;28;19928;-84
2022/09/28 08:50:31;;;;;;;6.35;3.40;;;;;;;-145.49;100.00;62790.56;4999715;28;20046;-85
2022/09/28 08:53:34;;;;;;;5.78;3.10;;;;;;;-145.49;100.00;62790.56;4988279;28;20026;-85
2022/09/28 08:56:42;;;;;;;4.82;2.45;;;;;;;-145.49;100.00;62790.56;4979554;28;20065;-85
2022/09/28 08:59:16;;;;;;;3.75;2.00;;;;;;;-145.49;100.00;62790.56;4989005;28;20039;-85
2022/09/28 09:02:20;;;;;;;4.10;2.15;;;;;;;-145.49;100.00;62790.56;4990840;28;20061;-84
2022/09/28 09:04:52;;;;;;;4.53;2.65;;;;;;;-145.49;100.00;62790.56;4972675;28;20041;-85
2022/09/28 09:07:30;;;;;;;5.07;3.90;;;;;;;-145.49;100.00;62790.56;4989482;28;20041;-84
2022/09/28 09:10:36;;;;;;;4.20;1.60;;;;;;;-145.49;100.00;62790.56;4990717;28;20043;-84
2022/09/28 09:13:30;;;;;;;2.45;1.25;;;;;;;-145.49;100.00;62790.56;4962898;28;20496;-83
2022/09/28 09:16:00;;;;;;;6.47;3.50;;;;;;;-145.49;100.00;62790.56;4999021;28;20054;-84
2022/09/28 09:18:51;;;;;;;8.85;3.10;;;;;;;-145.49;100.00;62790.56;4989369;28;20039;-84
2022/09/28 09:21:59;;;;;;;5.40;2.85;;;;;;;-145.49;100.00;62790.56;4975877;28;20408;-83
2022/09/28 09:24:56;;;;;;;3.33;2.15;;;;;;;-145.49;100.00;62790.56;4991947;28;20034;-83
2022/09/28 09:27:36;;;;;;;2.97;1.73;;;;;;;-145.49;100.00;62790.56;4984738;28;20516;-83
2022/09/28 09:30:15;;;;;;;3.15;2.03;;;;;;;-145.49;100.00;62790.56;4987313;28;20511;-84
2022/09/28 09:33:25;;;;;;;2.67;1.60;;;;;;;-145.49;100.00;62790.56;4988596;28;20049;-84
2022/09/28 09:36:36;;;;;;;2.83;1.15;;;;;;;-145.49;100.00;62790.56;4990670;28;20049;-84
2022/09/28 09:40:29;;;;;;;3.88;1.98;;;;;;;-145.49;100.00;62790.56;4993703;28;20412;-85
2022/09/28 09:43:37;;;;;;;3.63;1.88;;;;;;;-145.49;100.00;62790.56;4930317;29;20039;-84
2022/09/28 09:46:34;;;;;;;5.90;1.58;;;;;;;-145.49;100.00;62790.56;4907231;29;20050;-83
2022/09/28 09:49:36;;;;;;;3.95;1.55;;;;;;;-145.49;100.00;62790.56;4980191;28;20041;-84
2022/09/28 09:52:11;;;;;;;3.65;1.77;;;;;;;-145.49;100.00;62790.56;4989114;28;20034;-84
2022/09/28 09:54:43;;;;;;;3.42;1.70;;;;;;;-145.49;100.00;62790.56;4986408;28;20034;-83
2022/09/28 09:57:25;;;;;;;4.00;1.45;;;;;;;-145.49;100.00;62790.56;4975741;28;20046;-83
2022/09/28 10:00:03;;;;;;;4.82;2.25;;;;;;;-145.49;100.00;62790.56;4968730;28;20026;-83
2022/09/28 10:02:54;;;;;;;5.15;1.75;;;;;;;-145.49;100.00;62790.56;4986123;28;20042;-83
2022/09/28 10:05:37;;;;;;;3.58;1.33;;;;;;;-145.49;100.00;62790.56;4985166;28;20034;-83
2022/09/28 10:08:07;;;;;;;2.95;1.45;;;;;;;-145.49;100.00;62790.56;4954114;28;20042;-84
2022/09/28 10:10:50;;;;;;;3.25;2.05;;;;;;;-145.49;100.00;62790.56;4987484;28;20038;-83
2022/09/28 10:13:20;;;;;;;3.38;1.17;;;;;;;-145.49;100.00;62790.56;4991566;28;20049;-83
2022/09/28 10:15:56;;;;;;;3.13;1.20;;;;;;;-145.49;100.00;62790.56;4993462;28;20031;-84
2022/09/28 10:18:35;;;;;;;4.45;1.38;;;;;;;-145.49;100.00;62790.56;4987208;28;20061;-83
2022/09/28 10:21:21;;;;;;;1.50;1.23;;;;;;;-145.49;100.00;62790.56;4990789;28;20033;-83
2022/09/28 10:23:58;;;;;;;4.82;1.67;;;;;;;-145.49;100.00;62790.56;4973870;28;20045;-83
2022/09/28 10:26:35;;;;;;;2.92;2.60;;;;;;;-145.49;100.00;62790.56;4987320;28;20030;-83
2022/09/28 10:29:11;;;;;;;8.13;3.60;;;;;;;-145.49;100.00;62790.56;4996769;28;20428;-83
2022/09/28 10:31:42;;;;;;;5.50;3.38;;;;;;;-145.49;100.00;62790.56;4986401;28;20031;-83
2022/09/28 10:34:30;;;;;;;3.65;1.52;;;;;;;-145.49;100.00;62790.56;4975650;28;20042;-83
2022/09/28 10:37:08;;;;;;;4.22;1.90;;;;;;;-145.49;100.00;62790.56;4986970;28;20404;-83
2022/09/28 10:39:54;;;;;;;4.63;2.05;;;;;;;-145.49;100.00;62790.56;4987948;28;20042;-83
2022/09/28 10:42:35;;;;;;;3.05;1.38;;;;;;;-145.49;100.00;62790.56;4973871;28;20037;-83
2022/09/28 10:45:12;;;;;;;4.43;1.30;;;;;;;-145.49;100.00;62790.56;4966610;28;20027;-82
2022/09/28 10:47:43;;;;;;;1.60;1.02;;;;;;;-145.49;100.00;62790.56;4967642;28;20045;-83
2022/09/28 10:50:19;;;;;;;1.83;1.52;;;;;;;-145.49;100.00;62790.56;5001657;28;20042;-83
2022/09/28 10:52:48;;;;;;;2.40;1.33;;;;;;;-145.49;100.00;62790.56;4959159;28;20409;-83
2022/09/28 10:55:56;;;;;;;5.07;1.20;;;;;;;-145.49;100.00;62790.56;4989149;28;20038;-83
2022/09/28 10:58:38;;;;;;;1.95;1.40;;;;;;;-145.49;100.00;62790.56;5004622;28;20503;-83
2022/09/28 11:01:12;;;;;;;2.28;1.35;;;;;;;-145.49;100.00;62790.56;4988339;28;20041;-83
2022/09/28 11:03:55;;;;;;;3.97;1.58;;;;;;;-145.49;100.00;62790.56;4988223;28;20057;-82
2022/09/28 11:06:36;;;;;;;6.38;3.17;;;;;;;-145.49;100.00;62790.56;4974494;28;20385;-83
2022/09/28 11:09:29;;;;;;;3.17;1.83;;;;;;;-145.49;100.00;62790.56;4982157;28;20034;-83
2022/09/28 11:12:00;;;;;;;4.15;1.77;;;;;;;-145.49;100.00;62790.56;4995795;28;20046;-83
2022/09/28 11:14:37;;;;;;;1.88;1.25;;;;;;;-145.49;100.00;62790.56;4991979;28;20049;-82
2022/09/28 11:17:37;;;;;;;1.20;1.10;;;;;;;-145.49;100.00;62790.56;4992434;28;20045;-83
2022/09/28 11:20:25;;;;;;;4.10;2.17;;;;;;;-145.49;100.00;62790.56;4970601;23;20051;-75
2022/09/28 11:23:16;;;;;;;3.10;1.23;;;;;;;-145.49;100.00;62790.56;4938749;29;20039;-74
2022/09/28 11:25:54;;;;;;;1.88;1.15;;;;;;;-145.49;100.00;62790.56;4970867;28;20042;-75
2022/09/28 11:28:27;;;;;;;1.92;1.55;;;;;;;-145.49;100.00;62790.56;4944778;28;20059;-75
2022/09/28 11:30:54;;;;;;;2.65;1.05;;;;;;;-145.49;100.00;62790.56;4933726;29;20047;-75
2022/09/28 11:33:36;;;;;;;1.25;0.88;;;;;;;-145.49;100.00;62790.56;4936748;29;20043;-74
2022/09/28 11:36:56;;;;;;;3.22;1.83;;;;;;;-145.49;100.00;62790.56;4954119;28;20035;-74
2022/09/28 11:39:39;;;;;;;2.33;1.25;;;;;;;-145.49;100.00;62790.56;4915610;29;20045;-74
2022/09/28 11:42:25;;;;;;;6.68;1.60;;;;;;;-145.49;100.00;62790.56;4963299;28;20043;-74
2022/09/28 11:45:16;;;;;;;2.72;1.30;;;;;;;-145.49;100.00;62790.56;4945994;28;20054;-74
2022/09/28 11:47:54;;;;;;;2.75;1.25;;;;;;;-145.49;100.00;62790.56;4949701;28;20042;-72
2022/09/28 11:50:34;;;;;;;4.07;2.55;;;;;;;-145.49;100.00;62790.56;4931289;28;20054;-74
2022/09/28 11:53:15;;;;;;;1.73;1.13;;;;;;;-145.49;100.00;62790.56;4937390;29;20050;-75
2022/09/28 11:56:02;;;;;;;4.82;1.85;;;;;;;-145.49;100.00;62790.56;4932947;29;20039;-74
2022/09/28 11:58:36;;;;;;;1.70;1.00;;;;;;;-145.49;100.00;62790.56;4953372;28;20093;-74
2022/09/28 12:01:34;;;;;;;2.35;1.30;;;;;;;-145.49;100.00;62790.56;4947814;28;20051;-73
2022/09/28 12:04:22;;;;;;;3.80;1.55;;;;;;;-145.49;100.00;62790.56;4953790;28;20043;-74